sensor_id;sensor_type;location;lat;lon;timestamp;P1;durP1;ratioP1;P2;durP2;ratioP2
5452;SDS011;2749;53.576;9.822;2023-06-22T00:01:27;4.93;;;3.30;;
5452;SDS011;2749;53.576;9.822;2023-06-22T00:03:53;4.43;;;3.50;;
5452;SDS011;2749;53.576;9.822;2023-06-22T00:06:19;5.13;;;4.10;;
5452;SDS011;2749;53.576;9.822;2023-06-22T00:08:45;3.80;;;3.50;;
5452;SDS011;2749;53.576;9.822;2023-06-22T00:11:11;3.47;;;2.90;;
5452;SDS011;2749;53.576;9.822;2023-06-22T00:13:37;4.47;;;3.80;;
5452;SDS011;2749;53.576;9.822;2023-06-22T00:16:04;4.27;;;3.77;;
5452;SDS011;2749;53.576;9.822;2023-06-22T00:18:30;5.10;;;4.70;;
5452;SDS011;2749;53.576;9.822;2023-06-22T00:20:56;3.70;;;3.40;;
5452;SDS011;2749;53.576;9.822;2023-06-22T00:23:23;3.80;;;3.40;;
5452;SDS011;2749;53.576;9.822;2023-06-22T00:25:49;4.10;;;3.70;;
5452;SDS011;2749;53.576;9.822;2023-06-22T00:28:15;3.47;;;3.17;;
5452;SDS011;2749;53.576;9.822;2023-06-22T00:30:41;4.43;;;2.90;;
5452;SDS011;2749;53.576;9.822;2023-06-22T00:33:07;4.63;;;4.17;;
5452;SDS011;2749;53.576;9.822;2023-06-22T00:35:33;3.70;;;3.40;;
5452;SDS011;2749;53.576;9.822;2023-06-22T00:38:00;3.60;;;3.30;;
5452;SDS011;2749;53.576;9.822;2023-06-22T00:40:27;5.73;;;4.40;;
5452;SDS011;2749;53.576;9.822;2023-06-22T00:42:53;4.53;;;4.07;;
5452;SDS011;2749;53.576;9.822;2023-06-22T00:45:20;4.57;;;3.10;;
5452;SDS011;2749;53.576;9.822;2023-06-22T00:47:47;3.67;;;3.17;;
5452;SDS011;2749;53.576;9.822;2023-06-22T00:50:15;5.77;;;3.63;;
5452;SDS011;2749;53.576;9.822;2023-06-22T00:52:45;4.60;;;3.73;;
5452;SDS011;2749;53.576;9.822;2023-06-22T00:55:11;3.97;;;3.67;;
5452;SDS011;2749;53.576;9.822;2023-06-22T00:57:37;5.00;;;3.60;;
5452;SDS011;2749;53.576;9.822;2023-06-22T01:00:04;3.90;;;3.60;;
5452;SDS011;2749;53.576;9.822;2023-06-22T01:02:34;4.23;;;3.83;;
5452;SDS011;2749;53.576;9.822;2023-06-22T01:05:01;4.03;;;3.60;;
5452;SDS011;2749;53.576;9.822;2023-06-22T01:07:35;5.33;;;4.17;;
5452;SDS011;2749;53.576;9.822;2023-06-22T01:10:07;4.10;;;3.73;;
5452;SDS011;2749;53.576;9.822;2023-06-22T01:12:35;4.03;;;3.73;;
5452;SDS011;2749;53.576;9.822;2023-06-22T01:17:48;6.10;;;3.93;;
5452;SDS011;2749;53.576;9.822;2023-06-22T01:20:15;4.40;;;4.00;;
5452;SDS011;2749;53.576;9.822;2023-06-22T01:22:59;5.63;;;3.97;;
5452;SDS011;2749;53.576;9.822;2023-06-22T01:25:47;10.40;;;4.90;;
5452;SDS011;2749;53.576;9.822;2023-06-22T01:28:23;6.60;;;4.17;;
5452;SDS011;2749;53.576;9.822;2023-06-22T01:30:49;4.73;;;4.33;;
5452;SDS011;2749;53.576;9.822;2023-06-22T01:33:28;5.87;;;5.37;;
5452;SDS011;2749;53.576;9.822;2023-06-22T01:35:55;7.17;;;6.47;;
5452;SDS011;2749;53.576;9.822;2023-06-22T01:38:21;6.60;;;5.83;;
5452;SDS011;2749;53.576;9.822;2023-06-22T01:40:48;7.77;;;6.10;;
5452;SDS011;2749;53.576;9.822;2023-06-22T01:43:14;5.93;;;4.93;;
5452;SDS011;2749;53.576;9.822;2023-06-22T01:45:40;5.57;;;5.00;;
5452;SDS011;2749;53.576;9.822;2023-06-22T01:48:06;6.13;;;5.53;;
5452;SDS011;2749;53.576;9.822;2023-06-22T01:50:32;7.50;;;5.60;;
5452;SDS011;2749;53.576;9.822;2023-06-22T01:52:58;7.07;;;6.10;;
5452;SDS011;2749;53.576;9.822;2023-06-22T01:55:24;7.67;;;5.57;;
5452;SDS011;2749;53.576;9.822;2023-06-22T01:57:50;6.60;;;6.10;;
5452;SDS011;2749;53.576;9.822;2023-06-22T02:00:18;9.23;;;6.40;;
5452;SDS011;2749;53.576;9.822;2023-06-22T02:02:49;7.00;;;6.37;;
5452;SDS011;2749;53.576;9.822;2023-06-22T02:05:17;9.33;;;6.13;;
5452;SDS011;2749;53.576;9.822;2023-06-22T02:07:45;8.00;;;6.33;;
5452;SDS011;2749;53.576;9.822;2023-06-22T02:10:12;7.00;;;6.30;;
5452;SDS011;2749;53.576;9.822;2023-06-22T02:12:40;10.00;;;6.13;;
5452;SDS011;2749;53.576;9.822;2023-06-22T02:15:08;5.07;;;4.67;;
5452;SDS011;2749;53.576;9.822;2023-06-22T02:17:35;7.07;;;5.80;;
5452;SDS011;2749;53.576;9.822;2023-06-22T02:20:02;5.60;;;4.97;;
5452;SDS011;2749;53.576;9.822;2023-06-22T02:22:33;5.47;;;4.97;;
5452;SDS011;2749;53.576;9.822;2023-06-22T02:24:59;6.10;;;5.17;;
5452;SDS011;2749;53.576;9.822;2023-06-22T02:27:25;7.00;;;5.30;;
5452;SDS011;2749;53.576;9.822;2023-06-22T02:29:51;5.47;;;4.70;;
5452;SDS011;2749;53.576;9.822;2023-06-22T02:32:17;7.03;;;6.00;;
5452;SDS011;2749;53.576;9.822;2023-06-22T02:34:43;6.07;;;5.57;;
5452;SDS011;2749;53.576;9.822;2023-06-22T02:37:12;7.63;;;6.27;;
5452;SDS011;2749;53.576;9.822;2023-06-22T02:39:39;7.43;;;5.93;;
5452;SDS011;2749;53.576;9.822;2023-06-22T02:42:05;6.83;;;5.60;;
5452;SDS011;2749;53.576;9.822;2023-06-22T02:44:31;7.73;;;5.87;;
5452;SDS011;2749;53.576;9.822;2023-06-22T02:46:57;7.70;;;6.83;;
5452;SDS011;2749;53.576;9.822;2023-06-22T02:49:23;6.77;;;6.13;;
5452;SDS011;2749;53.576;9.822;2023-06-22T02:51:50;7.50;;;6.80;;
5452;SDS011;2749;53.576;9.822;2023-06-22T02:54:16;9.03;;;7.17;;
5452;SDS011;2749;53.576;9.822;2023-06-22T02:56:42;6.87;;;5.80;;
5452;SDS011;2749;53.576;9.822;2023-06-22T02:59:09;7.50;;;5.80;;
5452;SDS011;2749;53.576;9.822;2023-06-22T03:01:36;7.20;;;6.50;;
5452;SDS011;2749;53.576;9.822;2023-06-22T03:04:08;12.87;;;7.37;;
5452;SDS011;2749;53.576;9.822;2023-06-22T03:06:35;7.10;;;6.10;;
5452;SDS011;2749;53.576;9.822;2023-06-22T03:09:04;7.40;;;6.70;;
5452;SDS011;2749;53.576;9.822;2023-06-22T03:11:30;9.10;;;6.87;;
5452;SDS011;2749;53.576;9.822;2023-06-22T03:13:57;7.13;;;6.20;;
5452;SDS011;2749;53.576;9.822;2023-06-22T03:16:23;8.53;;;7.33;;
5452;SDS011;2749;53.576;9.822;2023-06-22T03:18:49;9.43;;;6.70;;
5452;SDS011;2749;53.576;9.822;2023-06-22T03:21:15;10.00;;;7.70;;
5452;SDS011;2749;53.576;9.822;2023-06-22T03:23:41;7.50;;;6.80;;
5452;SDS011;2749;53.576;9.822;2023-06-22T03:26:08;8.10;;;7.10;;
5452;SDS011;2749;53.576;9.822;2023-06-22T03:28:34;9.10;;;6.57;;
5452;SDS011;2749;53.576;9.822;2023-06-22T03:31:00;7.30;;;6.60;;
5452;SDS011;2749;53.576;9.822;2023-06-22T03:33:26;7.13;;;6.17;;
5452;SDS011;2749;53.576;9.822;2023-06-22T03:35:52;12.20;;;8.70;;
5452;SDS011;2749;53.576;9.822;2023-06-22T03:38:18;9.80;;;8.90;;
5452;SDS011;2749;53.576;9.822;2023-06-22T03:40:44;10.87;;;9.33;;
5452;SDS011;2749;53.576;9.822;2023-06-22T03:43:10;10.37;;;9.17;;
5452;SDS011;2749;53.576;9.822;2023-06-22T03:45:36;8.90;;;7.83;;
5452;SDS011;2749;53.576;9.822;2023-06-22T03:48:02;8.57;;;7.50;;
5452;SDS011;2749;53.576;9.822;2023-06-22T03:50:28;11.27;;;9.90;;
5452;SDS011;2749;53.576;9.822;2023-06-22T03:52:55;10.70;;;9.20;;
5452;SDS011;2749;53.576;9.822;2023-06-22T03:55:21;11.13;;;9.37;;
5452;SDS011;2749;53.576;9.822;2023-06-22T03:57:47;10.57;;;8.47;;
5452;SDS011;2749;53.576;9.822;2023-06-22T04:00:13;9.80;;;8.37;;
5452;SDS011;2749;53.576;9.822;2023-06-22T04:02:40;9.80;;;8.90;;
5452;SDS011;2749;53.576;9.822;2023-06-22T04:05:08;12.07;;;8.13;;
5452;SDS011;2749;53.576;9.822;2023-06-22T04:07:34;11.03;;;9.00;;
5452;SDS011;2749;53.576;9.822;2023-06-22T04:10:02;12.23;;;9.93;;
5452;SDS011;2749;53.576;9.822;2023-06-22T04:12:28;9.83;;;8.83;;
5452;SDS011;2749;53.576;9.822;2023-06-22T04:14:53;9.60;;;8.70;;
5452;SDS011;2749;53.576;9.822;2023-06-22T04:17:20;9.77;;;8.77;;
5452;SDS011;2749;53.576;9.822;2023-06-22T04:19:46;14.23;;;9.77;;
5452;SDS011;2749;53.576;9.822;2023-06-22T04:22:12;12.63;;;9.70;;
5452;SDS011;2749;53.576;9.822;2023-06-22T04:24:38;9.70;;;8.80;;
5452;SDS011;2749;53.576;9.822;2023-06-22T04:27:04;10.50;;;9.60;;
5452;SDS011;2749;53.576;9.822;2023-06-22T04:29:30;11.17;;;10.07;;
5452;SDS011;2749;53.576;9.822;2023-06-22T04:31:56;10.40;;;9.13;;
5452;SDS011;2749;53.576;9.822;2023-06-22T04:34:23;9.80;;;8.73;;
5452;SDS011;2749;53.576;9.822;2023-06-22T04:36:52;11.30;;;9.40;;
5452;SDS011;2749;53.576;9.822;2023-06-22T04:39:18;9.77;;;8.77;;
5452;SDS011;2749;53.576;9.822;2023-06-22T04:41:45;10.70;;;9.30;;
5452;SDS011;2749;53.576;9.822;2023-06-22T04:44:11;9.00;;;8.10;;
5452;SDS011;2749;53.576;9.822;2023-06-22T04:46:37;11.70;;;8.50;;
5452;SDS011;2749;53.576;9.822;2023-06-22T04:49:07;11.13;;;7.37;;
5452;SDS011;2749;53.576;9.822;2023-06-22T04:51:36;9.37;;;8.37;;
5452;SDS011;2749;53.576;9.822;2023-06-22T04:54:02;9.03;;;8.20;;
5452;SDS011;2749;53.576;9.822;2023-06-22T04:56:30;8.93;;;8.03;;
5452;SDS011;2749;53.576;9.822;2023-06-22T04:58:56;9.70;;;8.70;;
5452;SDS011;2749;53.576;9.822;2023-06-22T05:01:23;11.20;;;8.40;;
5452;SDS011;2749;53.576;9.822;2023-06-22T05:03:50;11.70;;;7.87;;
5452;SDS011;2749;53.576;9.822;2023-06-22T05:06:20;9.37;;;8.47;;
5452;SDS011;2749;53.576;9.822;2023-06-22T05:08:46;8.93;;;7.77;;
5452;SDS011;2749;53.576;9.822;2023-06-22T05:11:12;10.80;;;8.53;;
5452;SDS011;2749;53.576;9.822;2023-06-22T05:13:38;9.70;;;8.00;;
5452;SDS011;2749;53.576;9.822;2023-06-22T05:16:04;8.60;;;7.80;;
5452;SDS011;2749;53.576;9.822;2023-06-22T05:18:31;11.33;;;7.43;;
5452;SDS011;2749;53.576;9.822;2023-06-22T05:20:57;10.93;;;9.07;;
5452;SDS011;2749;53.576;9.822;2023-06-22T05:23:24;13.50;;;8.10;;
5452;SDS011;2749;53.576;9.822;2023-06-22T05:25:50;9.23;;;7.33;;
5452;SDS011;2749;53.576;9.822;2023-06-22T05:28:16;13.70;;;9.77;;
5452;SDS011;2749;53.576;9.822;2023-06-22T05:30:47;11.20;;;7.13;;
5452;SDS011;2749;53.576;9.822;2023-06-22T05:33:13;9.60;;;7.80;;
5452;SDS011;2749;53.576;9.822;2023-06-22T05:35:39;13.57;;;8.67;;
5452;SDS011;2749;53.576;9.822;2023-06-22T05:38:06;8.70;;;7.80;;
5452;SDS011;2749;53.576;9.822;2023-06-22T05:40:32;8.47;;;7.67;;
5452;SDS011;2749;53.576;9.822;2023-06-22T05:42:58;7.53;;;6.77;;
5452;SDS011;2749;53.576;9.822;2023-06-22T05:45:26;24.83;;;7.93;;
5452;SDS011;2749;53.576;9.822;2023-06-22T05:47:52;7.90;;;7.00;;
5452;SDS011;2749;53.576;9.822;2023-06-22T05:50:18;7.43;;;6.70;;
5452;SDS011;2749;53.576;9.822;2023-06-22T05:52:44;11.07;;;6.80;;
5452;SDS011;2749;53.576;9.822;2023-06-22T05:55:10;7.63;;;6.90;;
5452;SDS011;2749;53.576;9.822;2023-06-22T05:57:36;8.70;;;7.80;;
5452;SDS011;2749;53.576;9.822;2023-06-22T06:00:02;7.73;;;6.90;;
5452;SDS011;2749;53.576;9.822;2023-06-22T06:02:31;7.93;;;7.23;;
5452;SDS011;2749;53.576;9.822;2023-06-22T06:04:58;8.37;;;6.60;;
5452;SDS011;2749;53.576;9.822;2023-06-22T06:07:24;7.97;;;6.77;;
5452;SDS011;2749;53.576;9.822;2023-06-22T06:09:51;7.70;;;6.90;;
5452;SDS011;2749;53.576;9.822;2023-06-22T06:12:17;7.67;;;6.77;;
5452;SDS011;2749;53.576;9.822;2023-06-22T06:14:43;6.47;;;5.70;;
5452;SDS011;2749;53.576;9.822;2023-06-22T06:17:09;9.33;;;5.63;;
5452;SDS011;2749;53.576;9.822;2023-06-22T06:19:35;7.70;;;5.07;;
5452;SDS011;2749;53.576;9.822;2023-06-22T06:22:01;9.10;;;5.00;;
5452;SDS011;2749;53.576;9.822;2023-06-22T06:24:27;10.27;;;5.90;;
5452;SDS011;2749;53.576;9.822;2023-06-22T06:26:53;6.07;;;5.50;;
5452;SDS011;2749;53.576;9.822;2023-06-22T06:29:20;5.73;;;4.93;;
5452;SDS011;2749;53.576;9.822;2023-06-22T06:31:46;6.83;;;4.50;;
5452;SDS011;2749;53.576;9.822;2023-06-22T06:34:13;5.93;;;4.80;;
5452;SDS011;2749;53.576;9.822;2023-06-22T06:36:39;6.83;;;4.60;;
5452;SDS011;2749;53.576;9.822;2023-06-22T06:39:05;5.30;;;4.63;;
5452;SDS011;2749;53.576;9.822;2023-06-22T06:41:31;4.83;;;4.03;;
5452;SDS011;2749;53.576;9.822;2023-06-22T06:43:56;5.77;;;5.20;;
5452;SDS011;2749;53.576;9.822;2023-06-22T06:46:22;6.50;;;4.70;;
5452;SDS011;2749;53.576;9.822;2023-06-22T06:48:48;7.40;;;4.37;;
5452;SDS011;2749;53.576;9.822;2023-06-22T06:51:14;6.60;;;4.63;;
5452;SDS011;2749;53.576;9.822;2023-06-22T06:53:40;4.33;;;3.93;;
5452;SDS011;2749;53.576;9.822;2023-06-22T06:56:06;4.20;;;3.80;;
5452;SDS011;2749;53.576;9.822;2023-06-22T06:58:35;6.40;;;3.53;;
5452;SDS011;2749;53.576;9.822;2023-06-22T07:01:01;4.30;;;3.87;;
5452;SDS011;2749;53.576;9.822;2023-06-22T07:03:28;8.30;;;4.33;;
5452;SDS011;2749;53.576;9.822;2023-06-22T07:05:54;5.27;;;4.30;;
5452;SDS011;2749;53.576;9.822;2023-06-22T07:08:20;3.90;;;3.50;;
5452;SDS011;2749;53.576;9.822;2023-06-22T07:10:46;5.10;;;3.90;;
5452;SDS011;2749;53.576;9.822;2023-06-22T07:13:11;5.00;;;4.03;;
5452;SDS011;2749;53.576;9.822;2023-06-22T07:15:38;3.50;;;3.20;;
5452;SDS011;2749;53.576;9.822;2023-06-22T07:18:04;5.83;;;4.13;;
5452;SDS011;2749;53.576;9.822;2023-06-22T07:20:30;6.90;;;4.83;;
5452;SDS011;2749;53.576;9.822;2023-06-22T07:22:56;6.70;;;4.20;;
5452;SDS011;2749;53.576;9.822;2023-06-22T07:25:23;4.60;;;3.37;;
5452;SDS011;2749;53.576;9.822;2023-06-22T07:28:02;4.90;;;3.90;;
5452;SDS011;2749;53.576;9.822;2023-06-22T07:30:28;5.57;;;4.03;;
5452;SDS011;2749;53.576;9.822;2023-06-22T07:32:55;7.20;;;4.33;;
5452;SDS011;2749;53.576;9.822;2023-06-22T07:35:21;3.50;;;3.20;;
5452;SDS011;2749;53.576;9.822;2023-06-22T07:37:47;5.87;;;3.90;;
5452;SDS011;2749;53.576;9.822;2023-06-22T07:40:13;4.33;;;3.47;;
5452;SDS011;2749;53.576;9.822;2023-06-22T07:42:39;3.53;;;3.20;;
5452;SDS011;2749;53.576;9.822;2023-06-22T07:45:05;3.47;;;3.17;;
5452;SDS011;2749;53.576;9.822;2023-06-22T07:47:33;4.77;;;3.80;;
5452;SDS011;2749;53.576;9.822;2023-06-22T07:50:00;3.87;;;3.57;;
5452;SDS011;2749;53.576;9.822;2023-06-22T07:52:26;4.20;;;3.80;;
5452;SDS011;2749;53.576;9.822;2023-06-22T07:54:52;4.10;;;3.70;;
5452;SDS011;2749;53.576;9.822;2023-06-22T07:57:18;3.93;;;3.53;;
5452;SDS011;2749;53.576;9.822;2023-06-22T07:59:44;6.07;;;3.80;;
5452;SDS011;2749;53.576;9.822;2023-06-22T08:02:11;4.10;;;3.67;;
5452;SDS011;2749;53.576;9.822;2023-06-22T08:04:37;5.50;;;3.50;;
5452;SDS011;2749;53.576;9.822;2023-06-22T08:07:03;3.70;;;3.23;;
5452;SDS011;2749;53.576;9.822;2023-06-22T08:09:29;4.03;;;2.83;;
5452;SDS011;2749;53.576;9.822;2023-06-22T08:11:56;3.80;;;3.40;;
5452;SDS011;2749;53.576;9.822;2023-06-22T08:14:22;4.70;;;3.70;;
5452;SDS011;2749;53.576;9.822;2023-06-22T08:16:48;2.97;;;2.77;;
5452;SDS011;2749;53.576;9.822;2023-06-22T08:19:14;4.30;;;3.70;;
5452;SDS011;2749;53.576;9.822;2023-06-22T08:21:40;4.57;;;3.83;;
5452;SDS011;2749;53.576;9.822;2023-06-22T08:24:06;3.23;;;2.93;;
5452;SDS011;2749;53.576;9.822;2023-06-22T08:26:32;4.20;;;2.87;;
5452;SDS011;2749;53.576;9.822;2023-06-22T08:29:02;3.63;;;2.77;;
5452;SDS011;2749;53.576;9.822;2023-06-22T08:31:28;3.67;;;3.37;;
5452;SDS011;2749;53.576;9.822;2023-06-22T08:33:54;4.40;;;3.23;;
5452;SDS011;2749;53.576;9.822;2023-06-22T08:36:20;5.00;;;3.57;;
5452;SDS011;2749;53.576;9.822;2023-06-22T08:38:46;3.53;;;3.23;;
5452;SDS011;2749;53.576;9.822;2023-06-22T08:41:16;5.90;;;3.60;;
5452;SDS011;2749;53.576;9.822;2023-06-22T08:43:42;3.60;;;3.30;;
5452;SDS011;2749;53.576;9.822;2023-06-22T08:46:09;5.27;;;3.67;;
5452;SDS011;2749;53.576;9.822;2023-06-22T08:48:35;4.43;;;3.07;;
5452;SDS011;2749;53.576;9.822;2023-06-22T08:51:01;5.10;;;3.37;;
5452;SDS011;2749;53.576;9.822;2023-06-22T08:53:28;3.53;;;2.67;;
5452;SDS011;2749;53.576;9.822;2023-06-22T08:55:54;3.60;;;3.27;;
5452;SDS011;2749;53.576;9.822;2023-06-22T08:58:20;3.63;;;3.10;;
5452;SDS011;2749;53.576;9.822;2023-06-22T09:00:46;4.20;;;3.47;;
5452;SDS011;2749;53.576;9.822;2023-06-22T09:03:12;4.80;;;3.70;;
5452;SDS011;2749;53.576;9.822;2023-06-22T09:05:38;5.77;;;3.50;;
5452;SDS011;2749;53.576;9.822;2023-06-22T09:08:04;4.90;;;3.10;;
5452;SDS011;2749;53.576;9.822;2023-06-22T09:10:30;5.30;;;3.90;;
5452;SDS011;2749;53.576;9.822;2023-06-22T09:12:57;4.03;;;3.73;;
5452;SDS011;2749;53.576;9.822;2023-06-22T09:15:23;3.90;;;3.50;;
5452;SDS011;2749;53.576;9.822;2023-06-22T09:17:49;5.77;;;3.50;;
5452;SDS011;2749;53.576;9.822;2023-06-22T09:20:15;3.83;;;3.40;;
5452;SDS011;2749;53.576;9.822;2023-06-22T09:22:41;3.53;;;3.07;;
5452;SDS011;2749;53.576;9.822;2023-06-22T09:25:07;3.70;;;3.40;;
5452;SDS011;2749;53.576;9.822;2023-06-22T09:27:33;3.83;;;3.20;;
5452;SDS011;2749;53.576;9.822;2023-06-22T09:29:59;6.93;;;4.10;;
5452;SDS011;2749;53.576;9.822;2023-06-22T09:32:25;4.10;;;3.67;;
5452;SDS011;2749;53.576;9.822;2023-06-22T09:34:52;3.77;;;3.23;;
5452;SDS011;2749;53.576;9.822;2023-06-22T09:37:18;3.33;;;3.03;;
5452;SDS011;2749;53.576;9.822;2023-06-22T09:39:44;5.03;;;3.20;;
5452;SDS011;2749;53.576;9.822;2023-06-22T09:42:10;4.23;;;3.00;;
5452;SDS011;2749;53.576;9.822;2023-06-22T09:44:38;3.53;;;3.23;;
5452;SDS011;2749;53.576;9.822;2023-06-22T09:47:04;6.37;;;3.10;;
5452;SDS011;2749;53.576;9.822;2023-06-22T09:49:30;4.77;;;3.50;;
5452;SDS011;2749;53.576;9.822;2023-06-22T09:51:57;4.67;;;3.20;;
5452;SDS011;2749;53.576;9.822;2023-06-22T09:54:23;3.90;;;3.50;;
5452;SDS011;2749;53.576;9.822;2023-06-22T09:56:49;3.80;;;3.40;;
5452;SDS011;2749;53.576;9.822;2023-06-22T09:59:15;4.80;;;3.30;;
5452;SDS011;2749;53.576;9.822;2023-06-22T10:01:41;6.30;;;4.50;;
5452;SDS011;2749;53.576;9.822;2023-06-22T10:04:06;3.77;;;3.33;;
5452;SDS011;2749;53.576;9.822;2023-06-22T10:06:32;4.33;;;3.93;;
5452;SDS011;2749;53.576;9.822;2023-06-22T10:08:58;6.07;;;3.93;;
5452;SDS011;2749;53.576;9.822;2023-06-22T10:11:24;5.90;;;4.80;;
5452;SDS011;2749;53.576;9.822;2023-06-22T10:13:54;5.90;;;3.73;;
5452;SDS011;2749;53.576;9.822;2023-06-22T10:16:20;3.33;;;3.03;;
5452;SDS011;2749;53.576;9.822;2023-06-22T10:18:46;3.87;;;3.47;;
5452;SDS011;2749;53.576;9.822;2023-06-22T10:21:12;4.90;;;4.13;;
5452;SDS011;2749;53.576;9.822;2023-06-22T10:23:38;4.43;;;4.03;;
5452;SDS011;2749;53.576;9.822;2023-06-22T10:26:04;3.83;;;3.53;;
5452;SDS011;2749;53.576;9.822;2023-06-22T10:28:30;3.40;;;3.10;;
5452;SDS011;2749;53.576;9.822;2023-06-22T10:30:56;4.13;;;3.77;;
5452;SDS011;2749;53.576;9.822;2023-06-22T10:33:22;4.87;;;3.80;;
5452;SDS011;2749;53.576;9.822;2023-06-22T10:35:48;3.30;;;2.80;;
5452;SDS011;2749;53.576;9.822;2023-06-22T10:38:14;4.63;;;4.23;;
5452;SDS011;2749;53.576;9.822;2023-06-22T10:40:40;4.30;;;3.40;;
5452;SDS011;2749;53.576;9.822;2023-06-22T10:43:06;4.97;;;4.47;;
5452;SDS011;2749;53.576;9.822;2023-06-22T10:45:32;5.07;;;4.60;;
5452;SDS011;2749;53.576;9.822;2023-06-22T10:47:58;4.60;;;4.03;;
5452;SDS011;2749;53.576;9.822;2023-06-22T10:50:24;4.30;;;3.90;;
5452;SDS011;2749;53.576;9.822;2023-06-22T10:52:50;4.20;;;3.80;;
5452;SDS011;2749;53.576;9.822;2023-06-22T10:55:16;4.27;;;3.77;;
5452;SDS011;2749;53.576;9.822;2023-06-22T10:57:42;5.67;;;5.07;;
5452;SDS011;2749;53.576;9.822;2023-06-22T11:00:09;7.60;;;4.60;;
5452;SDS011;2749;53.576;9.822;2023-06-22T11:02:36;9.03;;;5.53;;
5452;SDS011;2749;53.576;9.822;2023-06-22T11:05:02;5.07;;;4.63;;
5452;SDS011;2749;53.576;9.822;2023-06-22T11:07:28;5.23;;;4.73;;
5452;SDS011;2749;53.576;9.822;2023-06-22T11:09:54;8.57;;;5.17;;
5452;SDS011;2749;53.576;9.822;2023-06-22T11:12:20;5.30;;;4.90;;
5452;SDS011;2749;53.576;9.822;2023-06-22T11:14:46;5.40;;;4.90;;
5452;SDS011;2749;53.576;9.822;2023-06-22T11:17:15;4.03;;;3.63;;
5452;SDS011;2749;53.576;9.822;2023-06-22T11:19:41;7.10;;;4.00;;
5452;SDS011;2749;53.576;9.822;2023-06-22T11:22:07;5.20;;;4.80;;
5452;SDS011;2749;53.576;9.822;2023-06-22T11:24:33;6.33;;;5.10;;
5452;SDS011;2749;53.576;9.822;2023-06-22T11:26:58;5.37;;;4.87;;
5452;SDS011;2749;53.576;9.822;2023-06-22T11:29:24;5.70;;;4.20;;
5452;SDS011;2749;53.576;9.822;2023-06-22T11:31:50;5.13;;;4.03;;
5452;SDS011;2749;53.576;9.822;2023-06-22T11:34:16;6.40;;;4.17;;
5452;SDS011;2749;53.576;9.822;2023-06-22T11:36:44;5.13;;;4.73;;
5452;SDS011;2749;53.576;9.822;2023-06-22T11:39:10;4.93;;;4.53;;
5452;SDS011;2749;53.576;9.822;2023-06-22T11:41:38;5.27;;;4.77;;
5452;SDS011;2749;53.576;9.822;2023-06-22T11:44:04;5.53;;;4.63;;
5452;SDS011;2749;53.576;9.822;2023-06-22T11:46:31;4.87;;;4.27;;
5452;SDS011;2749;53.576;9.822;2023-06-22T11:48:57;4.33;;;4.03;;
5452;SDS011;2749;53.576;9.822;2023-06-22T11:51:23;4.37;;;4.07;;
5452;SDS011;2749;53.576;9.822;2023-06-22T11:53:49;4.40;;;4.00;;
5452;SDS011;2749;53.576;9.822;2023-06-22T11:56:15;5.00;;;4.50;;
5452;SDS011;2749;53.576;9.822;2023-06-22T11:58:41;6.40;;;4.83;;
5452;SDS011;2749;53.576;9.822;2023-06-22T12:01:07;7.10;;;4.87;;
5452;SDS011;2749;53.576;9.822;2023-06-22T12:03:33;4.77;;;4.37;;
5452;SDS011;2749;53.576;9.822;2023-06-22T12:05:59;5.00;;;4.60;;
5452;SDS011;2749;53.576;9.822;2023-06-22T12:08:26;3.97;;;3.60;;
5452;SDS011;2749;53.576;9.822;2023-06-22T12:10:52;8.07;;;4.47;;
5452;SDS011;2749;53.576;9.822;2023-06-22T12:13:19;5.17;;;4.67;;
5452;SDS011;2749;53.576;9.822;2023-06-22T12:15:45;5.40;;;5.00;;
5452;SDS011;2749;53.576;9.822;2023-06-22T12:18:11;5.63;;;5.03;;
5452;SDS011;2749;53.576;9.822;2023-06-22T12:20:39;4.90;;;4.50;;
5452;SDS011;2749;53.576;9.822;2023-06-22T12:23:05;5.37;;;4.93;;
5452;SDS011;2749;53.576;9.822;2023-06-22T12:25:31;5.00;;;4.60;;
5452;SDS011;2749;53.576;9.822;2023-06-22T12:27:57;4.43;;;4.13;;
5452;SDS011;2749;53.576;9.822;2023-06-22T12:30:23;4.70;;;4.30;;
5452;SDS011;2749;53.576;9.822;2023-06-22T12:32:49;5.13;;;4.63;;
5452;SDS011;2749;53.576;9.822;2023-06-22T12:35:16;5.53;;;5.10;;
5452;SDS011;2749;53.576;9.822;2023-06-22T12:37:42;5.23;;;4.73;;
5452;SDS011;2749;53.576;9.822;2023-06-22T12:40:09;5.07;;;4.67;;
5452;SDS011;2749;53.576;9.822;2023-06-22T12:42:35;6.20;;;4.60;;
5452;SDS011;2749;53.576;9.822;2023-06-22T12:45:01;6.27;;;5.67;;
5452;SDS011;2749;53.576;9.822;2023-06-22T12:47:27;5.73;;;5.23;;
5452;SDS011;2749;53.576;9.822;2023-06-22T12:49:53;6.73;;;5.23;;
5452;SDS011;2749;53.576;9.822;2023-06-22T12:52:19;8.50;;;4.57;;
5452;SDS011;2749;53.576;9.822;2023-06-22T12:54:45;4.90;;;4.40;;
5452;SDS011;2749;53.576;9.822;2023-06-22T12:57:11;5.03;;;4.53;;
5452;SDS011;2749;53.576;9.822;2023-06-22T12:59:37;6.00;;;5.50;;
5452;SDS011;2749;53.576;9.822;2023-06-22T13:02:03;5.97;;;5.47;;
5452;SDS011;2749;53.576;9.822;2023-06-22T13:04:29;5.57;;;5.07;;
5452;SDS011;2749;53.576;9.822;2023-06-22T13:06:55;5.20;;;4.70;;
5452;SDS011;2749;53.576;9.822;2023-06-22T13:09:21;4.10;;;3.80;;
5452;SDS011;2749;53.576;9.822;2023-06-22T13:11:47;5.07;;;4.67;;
5452;SDS011;2749;53.576;9.822;2023-06-22T13:14:13;5.90;;;4.73;;
5452;SDS011;2749;53.576;9.822;2023-06-22T13:16:41;4.20;;;3.80;;
5452;SDS011;2749;53.576;9.822;2023-06-22T13:19:07;4.83;;;4.37;;
5452;SDS011;2749;53.576;9.822;2023-06-22T13:21:33;5.33;;;4.83;;
5452;SDS011;2749;53.576;9.822;2023-06-22T13:23:59;4.50;;;4.20;;
5452;SDS011;2749;53.576;9.822;2023-06-22T13:26:25;4.80;;;4.30;;
5452;SDS011;2749;53.576;9.822;2023-06-22T13:28:51;4.53;;;4.20;;
5452;SDS011;2749;53.576;9.822;2023-06-22T13:31:17;8.83;;;5.40;;
5452;SDS011;2749;53.576;9.822;2023-06-22T13:33:43;6.10;;;5.33;;
5452;SDS011;2749;53.576;9.822;2023-06-22T13:36:11;6.77;;;5.17;;
5452;SDS011;2749;53.576;9.822;2023-06-22T13:38:37;6.87;;;6.17;;
5452;SDS011;2749;53.576;9.822;2023-06-22T13:41:03;6.30;;;5.80;;
5452;SDS011;2749;53.576;9.822;2023-06-22T13:43:29;6.63;;;6.13;;
5452;SDS011;2749;53.576;9.822;2023-06-22T13:45:55;6.70;;;6.10;;
5452;SDS011;2749;53.576;9.822;2023-06-22T13:48:21;8.03;;;6.40;;
5452;SDS011;2749;53.576;9.822;2023-06-22T13:50:48;6.83;;;6.33;;
5452;SDS011;2749;53.576;9.822;2023-06-22T13:53:14;6.23;;;5.73;;
5452;SDS011;2749;53.576;9.822;2023-06-22T13:55:40;6.47;;;5.97;;
5452;SDS011;2749;53.576;9.822;2023-06-22T13:58:06;7.53;;;6.73;;
5452;SDS011;2749;53.576;9.822;2023-06-22T14:00:32;6.40;;;5.80;;
5452;SDS011;2749;53.576;9.822;2023-06-22T14:02:58;7.37;;;6.67;;
5452;SDS011;2749;53.576;9.822;2023-06-22T14:05:24;8.53;;;7.73;;
5452;SDS011;2749;53.576;9.822;2023-06-22T14:07:50;6.60;;;6.10;;
5452;SDS011;2749;53.576;9.822;2023-06-22T14:10:16;6.70;;;6.20;;
5452;SDS011;2749;53.576;9.822;2023-06-22T14:12:42;7.03;;;6.43;;
5452;SDS011;2749;53.576;9.822;2023-06-22T14:15:08;6.97;;;6.30;;
5452;SDS011;2749;53.576;9.822;2023-06-22T14:17:34;6.60;;;6.10;;
5452;SDS011;2749;53.576;9.822;2023-06-22T14:20:00;6.60;;;5.90;;
5452;SDS011;2749;53.576;9.822;2023-06-22T14:22:26;8.80;;;5.90;;
5452;SDS011;2749;53.576;9.822;2023-06-22T14:24:54;5.67;;;5.20;;
5452;SDS011;2749;53.576;9.822;2023-06-22T14:27:22;5.63;;;4.97;;
5452;SDS011;2749;53.576;9.822;2023-06-22T14:29:48;5.57;;;5.10;;
5452;SDS011;2749;53.576;9.822;2023-06-22T14:32:14;5.73;;;5.23;;
5452;SDS011;2749;53.576;9.822;2023-06-22T14:34:40;5.33;;;4.93;;
5452;SDS011;2749;53.576;9.822;2023-06-22T14:37:07;7.40;;;5.90;;
5452;SDS011;2749;53.576;9.822;2023-06-22T14:39:34;6.50;;;6.00;;
5452;SDS011;2749;53.576;9.822;2023-06-22T14:42:00;5.37;;;4.97;;
5452;SDS011;2749;53.576;9.822;2023-06-22T14:44:27;5.37;;;4.97;;
5452;SDS011;2749;53.576;9.822;2023-06-22T14:46:54;5.30;;;4.80;;
5452;SDS011;2749;53.576;9.822;2023-06-22T14:49:20;6.13;;;5.53;;
5452;SDS011;2749;53.576;9.822;2023-06-22T14:51:46;5.93;;;5.43;;
5452;SDS011;2749;53.576;9.822;2023-06-22T14:54:12;6.50;;;6.00;;
5452;SDS011;2749;53.576;9.822;2023-06-22T14:56:38;5.70;;;4.90;;
5452;SDS011;2749;53.576;9.822;2023-06-22T14:59:04;6.90;;;5.93;;
5452;SDS011;2749;53.576;9.822;2023-06-22T15:01:30;5.83;;;5.33;;
5452;SDS011;2749;53.576;9.822;2023-06-22T15:03:56;5.97;;;5.47;;
5452;SDS011;2749;53.576;9.822;2023-06-22T15:06:22;5.87;;;5.30;;
5452;SDS011;2749;53.576;9.822;2023-06-22T15:08:48;5.80;;;5.30;;
5452;SDS011;2749;53.576;9.822;2023-06-22T15:11:14;5.40;;;4.90;;
5452;SDS011;2749;53.576;9.822;2023-06-22T15:13:40;5.13;;;4.73;;